createdAt,value
2022-08-29T00:05:24.885Z,99.04
2022-08-29T00:11:08.080Z,98.84
2022-08-29T00:16:35.553Z,98.75
2022-08-29T00:21:51.629Z,98.78
2022-08-29T00:27:17.165Z,98.53
2022-08-29T00:33:06.949Z,98.34
2022-08-29T00:39:15.179Z,98.14
2022-08-29T00:45:19.064Z,97.87
2022-08-29T00:51:15.639Z,97.66
2022-08-29T00:57:09.450Z,97.36
2022-08-29T01:02:44.200Z,97.15
2022-08-29T01:08:30.186Z,96.94
2022-08-29T01:14:29.706Z,96.64
2022-08-29T01:20:40.489Z,96.54
2022-08-29T01:26:32.309Z,96.30
2022-08-29T01:32:27.940Z,96.16
2022-08-29T01:37:51.856Z,95.98
2022-08-29T01:43:07.573Z,95.80
2022-08-29T01:48:37.009Z,95.81
2022-08-29T01:54:19.833Z,95.71
2022-08-29T02:00:39.271Z,95.59
2022-08-29T02:06:45.322Z,95.71
2022-08-29T02:12:26.898Z,95.66
2022-08-29T02:18:12.613Z,95.58
2022-08-29T02:24:11.316Z,95.56
2022-08-29T02:30:01.642Z,95.56
2022-08-29T02:35:42.722Z,95.41
2022-08-29T02:41:58.626Z,95.35
2022-08-29T02:47:14.508Z,95.28
2022-08-29T02:52:37.145Z,95.18
2022-08-29T02:58:53.661Z,95.20
2022-08-29T03:04:26.517Z,95.19
2022-08-29T03:09:53.327Z,95.31
2022-08-29T03:15:18.750Z,95.45
2022-08-29T03:21:00.556Z,95.46
2022-08-29T03:26:42.202Z,95.57
2022-08-29T03:32:20.651Z,95.64
2022-08-29T03:38:22.873Z,95.75
2022-08-29T03:44:34.685Z,95.85
2022-08-29T03:50:23.939Z,95.88
2022-08-29T03:55:54.243Z,95.91
2022-08-29T04:01:28.339Z,95.84
2022-08-29T04:07:16.083Z,95.80
2022-08-29T04:13:08.048Z,95.94
2022-08-29T04:18:52.123Z,96.00
2022-08-29T04:24:20.121Z,96.04
2022-08-29T04:30:02.440Z,96.04
2022-08-29T04:35:35.620Z,96.13
2022-08-29T04:41:00.691Z,96.00
2022-08-29T04:47:02.957Z,96.16
2022-08-29T04:52:26.176Z,96.20
2022-08-29T04:57:43.881Z,96.13
2022-08-29T05:03:56.589Z,96.03
2022-08-29T05:09:31.995Z,96.04
2022-08-29T05:15:40.674Z,95.93
2022-08-29T05:21:51.312Z,95.85
2022-08-29T05:27:56.435Z,95.59
2022-08-29T05:33:29.992Z,95.29
2022-08-29T05:39:36.018Z,95.15
2022-08-29T05:45:08.819Z,94.89
2022-08-29T05:51:10.141Z,94.85
2022-08-29T05:57:57.187Z,94.78
2022-08-29T06:03:18.071Z,94.79
2022-08-29T06:09:34.080Z,94.46
2022-08-29T06:14:59.240Z,93.81
2022-08-29T06:21:02.292Z,93.68
2022-08-29T06:26:40.544Z,93.43
2022-08-29T06:32:38.644Z,93.15
2022-08-29T06:38:25.056Z,92.67
2022-08-29T06:43:30.266Z,92.58
2022-08-29T06:48:53.932Z,92.42
2022-08-29T06:54:28.161Z,91.94
2022-08-29T07:00:21.392Z,91.46
2022-08-29T07:05:29.471Z,90.74
2022-08-29T07:10:32.304Z,90.30
2022-08-29T07:16:13.348Z,89.50
2022-08-29T07:21:35.778Z,88.65
2022-08-29T07:26:47.573Z,88.49
2022-08-29T07:31:50.227Z,88.38
2022-08-29T07:37:21.196Z,88.03
2022-08-29T07:42:28.609Z,87.71
2022-08-29T07:47:42.099Z,86.16
2022-08-29T07:53:00.550Z,85.50
2022-08-29T07:58:27.366Z,84.72
2022-08-29T08:03:38.828Z,84.50
2022-08-29T08:08:44.190Z,83.77
2022-08-29T08:14:00.031Z,83.12
2022-08-29T08:19:16.030Z,81.69
2022-08-29T08:24:28.403Z,82.84
2022-08-29T08:29:34.175Z,81.58
2022-08-29T08:34:36.407Z,81.00
2022-08-29T08:40:00.175Z,80.37
2022-08-29T08:45:23.076Z,80.20
2022-08-29T08:51:17.094Z,79.87
2022-08-29T08:56:37.817Z,79.08
2022-08-29T09:02:07.272Z,79.92
2022-08-29T09:08:02.330Z,79.94
2022-08-29T09:14:10.965Z,79.17
2022-08-29T09:19:17.568Z,77.41
2022-08-29T09:24:36.188Z,77.09
2022-08-29T09:29:50.203Z,76.87
2022-08-29T09:35:09.263Z,77.38
2022-08-29T09:40:19.290Z,76.35
2022-08-29T09:45:41.103Z,75.52
2022-08-29T09:51:12.993Z,74.80
2022-08-29T09:56:37.578Z,74.53
2022-08-29T10:02:26.823Z,73.89
2022-08-29T10:08:00.221Z,72.47
2022-08-29T10:13:22.261Z,71.94
2022-08-29T10:18:52.974Z,70.89
2022-08-29T10:24:24.400Z,70.12
2022-08-29T10:29:56.079Z,69.89
2022-08-29T10:35:39.234Z,69.65
2022-08-29T10:41:16.359Z,68.43
2022-08-29T10:46:33.888Z,68.44
2022-08-29T10:51:52.499Z,68.32
2022-08-29T10:57:10.979Z,67.66
2022-08-29T11:02:38.303Z,67.51
2022-08-29T11:08:16.075Z,67.37
2022-08-29T11:13:38.532Z,66.87
2022-08-29T11:19:24.995Z,66.99
2022-08-29T11:24:38.154Z,66.14
2022-08-29T11:30:14.228Z,66.51
2022-08-29T11:35:25.128Z,66.08
2022-08-29T11:41:28.053Z,65.82
2022-08-29T11:46:40.816Z,66.26
2022-08-29T11:52:30.282Z,65.31
2022-08-29T11:57:46.014Z,64.12
2022-08-29T12:02:50.565Z,64.28
2022-08-29T12:08:37.044Z,64.07
2022-08-29T12:14:04.926Z,63.96
2022-08-29T12:19:11.138Z,64.51
2022-08-29T12:24:58.514Z,62.99
2022-08-29T12:30:14.498Z,62.87
2022-08-29T12:36:25.039Z,62.26
2022-08-29T12:41:46.830Z,61.39
2022-08-29T12:47:10.225Z,59.56
2022-08-29T12:52:27.554Z,60.31
2022-08-29T12:57:56.942Z,60.62
2022-08-29T13:03:15.169Z,61.08
2022-08-29T13:08:37.221Z,60.84
2022-08-29T13:14:16.526Z,60.88
2022-08-29T13:19:22.309Z,60.76
2022-08-29T13:24:30.421Z,60.47
2022-08-29T13:29:41.095Z,59.78
2022-08-29T13:35:24.475Z,59.70
2022-08-29T13:41:01.144Z,59.38
2022-08-29T13:46:30.415Z,59.19
2022-08-29T13:52:02.875Z,59.10
2022-08-29T13:57:38.843Z,59.42
2022-08-29T14:03:09.537Z,59.00
2022-08-29T14:08:15.297Z,58.50
2022-08-29T14:13:40.468Z,58.68
2022-08-29T14:18:58.008Z,59.20
2022-08-29T14:24:00.117Z,58.44
2022-08-29T14:29:04.917Z,58.71
2022-08-29T14:34:13.501Z,57.91
2022-08-29T14:39:16.651Z,57.90
2022-08-29T14:44:20.216Z,57.62
2022-08-29T14:49:28.729Z,57.70
2022-08-29T14:54:36.271Z,57.38
2022-08-29T14:59:45.223Z,56.66
2022-08-29T15:04:59.038Z,57.40
2022-08-29T15:10:05.104Z,57.62
2022-08-29T15:15:28.390Z,56.85
2022-08-29T15:20:38.648Z,56.33
2022-08-29T15:25:51.856Z,56.49
2022-08-29T15:30:59.941Z,56.56
2022-08-29T15:36:15.559Z,56.11
2022-08-29T15:41:24.569Z,55.97
2022-08-29T15:46:34.120Z,55.65
2022-08-29T15:52:00.747Z,54.93
2022-08-29T15:57:02.822Z,54.23
2022-08-29T16:02:12.853Z,54.22
2022-08-29T16:07:18.322Z,54.83
2022-08-29T16:12:21.948Z,55.20
2022-08-29T16:17:24.772Z,55.49
2022-08-29T16:22:28.588Z,55.50
2022-08-29T16:27:56.868Z,55.35
2022-08-29T16:33:02.031Z,53.92
2022-08-29T16:38:04.224Z,54.20
2022-08-29T16:43:07.620Z,54.53
2022-08-29T16:48:19.458Z,54.74
2022-08-29T16:53:21.889Z,55.24
2022-08-29T16:58:49.538Z,55.79
2022-08-29T17:04:12.225Z,56.38
2022-08-29T17:09:24.545Z,56.97
2022-08-29T17:14:40.020Z,57.45
2022-08-29T17:19:44.545Z,57.92
2022-08-29T17:25:10.173Z,58.21
2022-08-29T17:30:38.620Z,58.76
2022-08-29T17:36:18.562Z,59.33
2022-08-29T17:41:32.066Z,59.91
2022-08-29T17:46:52.149Z,60.52
2022-08-29T17:52:07.685Z,61.09
2022-08-29T17:57:56.729Z,61.44
2022-08-29T18:03:05.399Z,61.84
2022-08-29T18:08:28.087Z,62.44
2022-08-29T18:13:31.171Z,62.92
2022-08-29T18:19:44.581Z,63.02
2022-08-29T18:25:28.536Z,63.79
2022-08-29T18:30:38.593Z,64.05
2022-08-29T18:36:02.225Z,64.32
2022-08-29T18:41:04.830Z,64.76
2022-08-29T18:46:09.454Z,65.34
2022-08-29T18:51:39.131Z,65.54
2022-08-29T18:57:00.630Z,66.14
2022-08-29T19:02:13.473Z,66.84
2022-08-29T19:07:26.024Z,67.68
2022-08-29T19:12:28.414Z,68.33
2022-08-29T19:17:31.385Z,69.09
2022-08-29T19:22:36.589Z,69.94
2022-08-29T19:27:44.156Z,70.50
2022-08-29T19:32:47.051Z,70.87
2022-08-29T19:38:10.135Z,71.36
2022-08-29T19:43:32.609Z,71.87
2022-08-29T19:49:01.578Z,72.48
2022-08-29T19:54:24.082Z,73.24
2022-08-29T19:59:32.055Z,73.97
2022-08-29T20:04:49.019Z,74.59
2022-08-29T20:09:54.526Z,74.98
2022-08-29T20:15:30.831Z,75.34
2022-08-29T20:20:42.379Z,75.72
2022-08-29T20:26:13.644Z,76.07
2022-08-29T20:31:38.081Z,76.72
2022-08-29T20:37:09.847Z,76.90
2022-08-29T20:42:43.813Z,77.32
2022-08-29T20:48:09.843Z,77.66
2022-08-29T20:53:31.782Z,77.87
2022-08-29T20:58:44.003Z,78.18
2022-08-29T21:04:20.984Z,78.92
2022-08-29T21:10:30.640Z,79.43
2022-08-29T21:15:58.978Z,79.84
2022-08-29T21:21:02.280Z,80.10
2022-08-29T21:26:38.673Z,80.20
2022-08-29T21:32:12.230Z,80.56
2022-08-29T21:37:44.340Z,80.93
2022-08-29T21:43:22.162Z,81.70
2022-08-29T21:49:36.832Z,81.87
2022-08-29T21:55:11.389Z,82.20
2022-08-29T22:00:37.100Z,82.45
2022-08-29T22:05:45.237Z,82.75
2022-08-29T22:10:53.752Z,83.12
2022-08-29T22:16:43.329Z,83.61
2022-08-29T22:22:08.367Z,83.86
2022-08-29T22:27:10.683Z,84.43
2022-08-29T22:32:14.173Z,84.91
2022-08-29T22:37:38.749Z,85.31
2022-08-29T22:43:05.362Z,85.75
2022-08-29T22:48:16.403Z,86.48
2022-08-29T22:53:21.398Z,86.81
2022-08-29T22:58:49.211Z,87.24
2022-08-29T23:04:13.667Z,87.45
2022-08-29T23:09:48.195Z,87.47
2022-08-29T23:15:17.483Z,87.44
2022-08-29T23:20:29.978Z,87.52
2022-08-29T23:25:32.233Z,87.88
2022-08-29T23:30:44.956Z,88.05
2022-08-29T23:35:57.800Z,88.35
2022-08-29T23:41:32.167Z,88.42
2022-08-29T23:46:55.769Z,88.52
2022-08-29T23:52:45.467Z,88.66
2022-08-29T23:58:08.379Z,88.89
